< < Back
Terminal Aerodrome Forecast


Current Version              Previous Versions:   1  2  3  4  5  6  7  8  9  

Terminal Aerodrome Forecast

261
FTUS42 KGSP 302321
TAFAND
TAF
KAND 302321Z 3100/3124 32005KT P6SM SKC
     FM311600 23003KT P6SM FEW160=

Latest METAR

952
SAUS70 KWBC 310500 RRA
MTRAND
METAR KAND 310456Z AUTO 00000KT 10SM CLR M02/M07 A3031 RMK AO2 SLP266
T10171072 401221017


USA.gov is the U.S. government's official web portal to all federal, state and local government web resources and services.